Time;durP1;ratioP1;P1;durP2;ratioP2;P2;SDS_P1;SDS_P2;PMS_P1;PMS_P2;Temp;Humidity;BMP_temperature;BMP_pressure;BME280_temperature;BME280_humidity;BME280_pressure;Samples;Min_cycle;Max_cycle;Signal;HPM_P1;HPM_P2
2022/11/04 00:01:22;;;;;;;;;;;;;;;;;;5007495;28;19929;-66
2022/11/04 00:03:47;;;;;;;;;;;;;;;;;;5008038;28;19929;-66
2022/11/04 00:06:13;;;;;;;;;;;;;;;;;;5006758;28;20346;-66
2022/11/04 00:08:38;;;;;;;;;;;;;;;;;;5006452;28;19925;-67
2022/11/04 00:13:47;;;;;;;;;;;;;;;;;;5005494;28;20342;-66
2022/11/04 00:18:58;;;;;;;;;;;;;;;;;;5003573;28;19951;-66
2022/11/04 00:29:37;;;;;;;;;;;;;;;;;;4993107;28;19947;-65
2022/11/04 00:34:47;;;;;;;;;;;;;;;;;;4993638;28;19924;-65
2022/11/04 00:37:12;;;;;;;;;;;;;;;;;;4995077;28;19921;-65
2022/11/04 00:39:38;;;;;;;;;;;;;;;;;;4993228;28;20376;-65
2022/11/04 00:42:03;;;;;;;;;;;;;;;;;;4992203;28;19952;-66
2022/11/04 00:44:28;;;;;;;;;;;;;;;;;;4993772;28;20356;-66
2022/11/04 00:46:53;;;;;;;;;;;;;;;;;;4985511;28;19957;-66
2022/11/04 00:49:19;;;;;;;;;;;;;;;;;;4982456;28;20356;-65
2022/11/04 00:51:44;;;;;;;;;;;;;;;;;;4992874;28;19944;-65
2022/11/04 00:54:09;;;;;;;;;;;;;;;;;;5002497;28;19933;-66
2022/11/04 00:56:38;;;;;;;;;;;;;;;;;;5001359;28;21101;-66
2022/11/04 00:59:04;;;;;;;;;;;;;;;;;;4990903;28;20284;-66
2022/11/04 01:01:29;;;;;;;;;;;;;;;;;;4996834;28;19917;-66
2022/11/04 01:03:55;;;;;;;;;;;;;;;;;;5001886;28;20332;-66
2022/11/04 01:06:21;;;;;;;;;;;;;;;;;;5001051;28;20014;-67
2022/11/04 01:08:47;;;;;;;;;;;;;;;;;;5001884;28;20634;-66
2022/11/04 01:11:12;;;;;;;;;;;;;;;;;;5003129;28;19924;-65
2022/11/04 01:13:38;;;;;;;;;;;;;;;;;;5000103;28;19925;-66
2022/11/04 01:16:05;;;;;;;;;;;;;;;;;;4995293;28;20699;-66
2022/11/04 01:18:30;;;;;;;;;;;;;;;;;;4999859;28;20254;-66
2022/11/04 01:21:06;;;;;;;;;;;;;;;;;;5002799;28;19975;-65
2022/11/04 01:23:33;;;;;;;;;;;;;;;;;;4996198;28;20049;-66
2022/11/04 01:25:58;;;;;;;;;;;;;;;;;;5000883;28;20379;-66
2022/11/04 01:28:23;;;;;;;;;;;;;;;;;;5002202;28;20012;-66
2022/11/04 01:30:50;;;;;;;;;;;;;;;;;;5002314;28;19925;-66
2022/11/04 01:33:15;;;;;;;;;;;;;;;;;;5004148;28;19932;-66
2022/11/04 01:35:40;;;;;;;;;;;;;;;;;;5005310;28;19926;-66
2022/11/04 01:38:05;;;;;;;;;;;;;;;;;;5001538;28;19931;-65
2022/11/04 01:40:35;;;;;;;;;;;;;;;;;;5003526;28;19925;-66
2022/11/04 01:43:00;;;;;;;;;;;;;;;;;;4995663;28;21014;-66
2022/11/04 01:45:26;;;;;;;;;;;;;;;;;;4993457;28;19929;-66
2022/11/04 01:48:04;;;;;;;;;;;;;;;;;;5000865;28;19965;-66
2022/11/04 01:50:31;;;;;;;;;;;;;;;;;;5000851;28;20476;-66
2022/11/04 01:52:56;;;;;;;;;;;;;;;;;;5002534;28;19971;-66
2022/11/04 01:55:27;;;;;;;;;;;;;;;;;;5000663;28;20884;-66
2022/11/04 01:57:55;;;;;;;;;;;;;;;;;;4999036;28;19956;-66
2022/11/04 02:00:20;;;;;;;;;;;;;;;;;;4999506;28;20759;-65
2022/11/04 02:03:00;;;;;;;;;;;;;;;;;;5003413;28;19959;-66
2022/11/04 02:05:26;;;;;;;;;;;;;;;;;;5000779;28;19929;-66
2022/11/04 02:07:53;;;;;;;;;;;;;;;;;;5000635;28;19932;-66
2022/11/04 02:10:21;;;;;;;;;;;;;;;;;;4998415;28;19925;-66
2022/11/04 02:12:49;;;;;;;;;;;;;;;;;;4994018;28;20003;-68
2022/11/04 02:15:35;;;;;;;;;;;;;;;;;;4999949;28;19929;-66
2022/11/04 02:18:19;;;;;;;;;;;;;;;;;;4979848;28;19929;-65
2022/11/04 02:20:54;;;;;;;;;;;;;;;;;;5005557;28;19948;-66
2022/11/04 02:23:30;;;;;;;;;;;;;;;;;;5003306;28;19929;-66
2022/11/04 02:26:08;;;;;;;;;;;;;;;;;;4997941;28;20006;-66
2022/11/04 02:28:46;;;;;;;;;;;;;;;;;;4996944;28;19921;-66
2022/11/04 02:31:17;;;;;;;;;;;;;;;;;;5004309;28;19929;-65
2022/11/04 02:33:48;;;;;;;;;;;;;;;;;;5006308;28;19925;-66
2022/11/04 02:36:33;;;;;;;;;;;;;;;;;;5000825;28;20258;-65
2022/11/04 02:39:03;;;;;;;;;;;;;;;;;;4993686;28;20017;-66
2022/11/04 02:41:45;;;;;;;;;;;;;;;;;;5001416;28;19928;-65
2022/11/04 02:44:15;;;;;;;;;;;;;;;;;;5000432;28;20359;-65
2022/11/04 02:46:47;;;;;;;;;;;;;;;;;;4998498;28;19921;-66
2022/11/04 02:49:22;;;;;;;;;;;;;;;;;;4999301;28;19933;-66
2022/11/04 02:52:06;;;;;;;;;;;;;;;;;;4998253;28;19929;-65
2022/11/04 02:54:40;;;;;;;;;;;;;;;;;;5001164;28;19940;-66
2022/11/04 02:57:07;;;;;;;;;;;;;;;;;;5000629;28;19926;-66
2022/11/04 02:59:40;;;;;;;;;;;;;;;;;;4998771;28;19944;-66
2022/11/04 03:02:12;;;;;;;;;;;;;;;;;;4995111;28;19921;-68
2022/11/04 03:04:39;;;;;;;;;;;;;;;;;;5001940;28;19924;-66
2022/11/04 03:07:06;;;;;;;;;;;;;;;;;;4997945;28;19933;-66
2022/11/04 03:09:32;;;;;;;;;;;;;;;;;;5000960;28;19929;-66
2022/11/04 03:12:01;;;;;;;;;;;;;;;;;;5004138;28;19932;-66
2022/11/04 03:14:30;;;;;;;;;;;;;;;;;;4997773;28;19921;-66
2022/11/04 03:16:58;;;;;;;;;;;;;;;;;;4997534;28;19918;-66
2022/11/04 03:19:42;;;;;;;;;;;;;;;;;;5013333;28;19921;-66
2022/11/04 03:22:35;;;;;;;;;;;;;;;;;;5004156;28;19940;-66
2022/11/04 03:25:01;;;;;;;;;;;;;;;;;;4997766;28;19988;-66
2022/11/04 03:27:32;;;;;;;;;;;;;;;;;;4997392;28;19922;-68
2022/11/04 03:30:00;;;;;;;;;;;;;;;;;;5001853;28;20344;-66
2022/11/04 03:32:38;;;;;;;;;;;;;;;;;;4998922;28;20004;-66
2022/11/04 03:35:04;;;;;;;;;;;;;;;;;;4995787;28;19921;-65
2022/11/04 03:37:29;;;;;;;;;;;;;;;;;;5000487;28;20376;-66
2022/11/04 03:39:55;;;;;;;;;;;;;;;;;;5001211;28;19921;-66
2022/11/04 03:42:20;;;;;;;;;;;;;;;;;;5004167;28;19930;-66
2022/11/04 03:44:52;;;;;;;;;;;;;;;;;;4999321;28;19973;-66
2022/11/04 03:47:19;;;;;;;;;;;;;;;;;;5001953;28;19925;-66
2022/11/04 03:49:46;;;;;;;;;;;;;;;;;;5002104;28;20388;-66
2022/11/04 03:52:11;;;;;;;;;;;;;;;;;;4998134;28;19929;-66
2022/11/04 03:54:37;;;;;;;;;;;;;;;;;;5000156;28;20007;-66
2022/11/04 03:57:21;;;;;;;;;;;;;;;;;;5001646;28;19968;-66
2022/11/04 03:59:49;;;;;;;;;;;;;;;;;;4998304;28;19925;-66
2022/11/04 04:02:33;;;;;;;;;;;;;;;;;;4990767;28;20277;-66
2022/11/04 04:04:59;;;;;;;;;;;;;;;;;;4998266;28;20010;-66
2022/11/04 04:07:38;;;;;;;;;;;;;;;;;;4997063;28;19921;-66
2022/11/04 04:10:37;;;;;;;;;;;;;;;;;;4996334;28;20451;-66
2022/11/04 04:12:54;;;;;;;;;;;;;;;;;;5000740;28;19933;-66
2022/11/04 04:15:22;;;;;;;;;;;;;;;;;;5001698;28;19929;-66
2022/11/04 04:17:55;;;;;;;;;;;;;;;;;;4996534;28;19926;-66
2022/11/04 04:20:22;;;;;;;;;;;;;;;;;;4995479;28;19925;-66
2022/11/04 04:22:51;;;;;;;;;;;;;;;;;;5003007;28;20344;-66
2022/11/04 04:28:02;;;;;;;;;;;;;;;;;;5001073;28;19936;-66
2022/11/04 04:30:28;;;;;;;;;;;;;;;;;;5001154;28;19929;-66
2022/11/04 04:33:07;;;;;;;;;;;;;;;;;;4999695;28;19936;-66
2022/11/04 04:35:40;;;;;;;;;;;;;;;;;;5001103;28;19952;-65
2022/11/04 04:46:28;;;;;;;;;;;;;;;;;;5001150;28;19945;-65
2022/11/04 04:48:53;;;;;;;;;;;;;;;;;;5002379;28;20336;-65
2022/11/04 04:51:18;;;;;;;;;;;;;;;;;;5003364;28;19948;-65
2022/11/04 04:53:43;;;;;;;;;;;;;;;;;;4998148;28;19922;-65
2022/11/04 04:56:09;;;;;;;;;;;;;;;;;;5005148;28;19975;-64
2022/11/04 04:58:34;;;;;;;;;;;;;;;;;;5003181;28;20029;-65
2022/11/04 05:00:59;;;;;;;;;;;;;;;;;;4996262;28;19921;-65
2022/11/04 05:03:25;;;;;;;;;;;;;;;;;;5000259;28;21137;-65
2022/11/04 05:05:50;;;;;;;;;;;;;;;;;;4997026;28;19929;-65
2022/11/04 05:08:15;;;;;;;;;;;;;;;;;;5004173;28;19940;-65
2022/11/04 05:10:40;;;;;;;;;;;;;;;;;;5004844;28;20303;-65
2022/11/04 05:15:50;;;;;;;;;;;;;;;;;;5006036;28;19950;-65
2022/11/04 05:18:15;;;;;;;;;;;;;;;;;;5006333;28;20289;-65
2022/11/04 05:20:41;;;;;;;;;;;;;;;;;;5005724;28;19926;-64
2022/11/04 05:23:06;;;;;;;;;;;;;;;;;;4999731;28;19990;-58
2022/11/04 05:25:32;;;;;;;;;;;;;;;;;;5000400;28;20020;-59
2022/11/04 05:28:00;;;;;;;;;;;;;;;;;;4995549;28;19928;-59
2022/11/04 05:30:26;;;;;;;;;;;;;;;;;;4997389;28;19925;-59
2022/11/04 05:32:51;;;;;;;;;;;;;;;;;;5000033;28;19929;-59
2022/11/04 05:35:16;;;;;;;;;;;;;;;;;;4999409;28;20004;-59
2022/11/04 05:37:42;;;;;;;;;;;;;;;;;;5000195;28;20003;-59
2022/11/04 05:40:07;;;;;;;;;;;;;;;;;;5004155;28;20446;-59
2022/11/04 05:42:32;;;;;;;;;;;;;;;;;;5003426;28;19925;-60
2022/11/04 05:44:58;;;;;;;;;;;;;;;;;;5000128;28;19931;-59
2022/11/04 05:47:23;;;;;;;;;;;;;;;;;;4998211;28;19922;-59
2022/11/04 05:49:49;;;;;;;;;;;;;;;;;;5000671;28;19922;-58
2022/11/04 05:52:14;;;;;;;;;;;;;;;;;;4999001;28;19925;-63
2022/11/04 05:54:39;;;;;;;;;;;;;;;;;;5002114;28;20016;-59
2022/11/04 05:57:05;;;;;;;;;;;;;;;;;;5003127;28;19921;-59
2022/11/04 05:59:30;;;;;;;;;;;;;;;;;;5003260;28;19926;-58
2022/11/04 06:01:55;;;;;;;;;;;;;;;;;;4999945;28;19924;-59
2022/11/04 06:04:20;;;;;;;;;;;;;;;;;;4996450;28;20004;-59
2022/11/04 06:06:46;;;;;;;;;;;;;;;;;;4997602;28;19926;-57
2022/11/04 06:09:11;;;;;;;;;;;;;;;;;;5004147;28;20300;-59
2022/11/04 06:11:37;;;;;;;;;;;;;;;;;;5002075;28;19968;-57
2022/11/04 06:14:02;;;;;;;;;;;;;;;;;;4998283;28;19960;-58
2022/11/04 06:16:28;;;;;;;;;;;;;;;;;;5003606;28;19918;-60
2022/11/04 06:18:53;;;;;;;;;;;;;;;;;;5004365;28;19995;-59
2022/11/04 06:21:21;;;;;;;;;;;;;;;;;;5002278;28;19932;-59
2022/11/04 06:23:47;;;;;;;;;;;;;;;;;;5002406;28;20060;-60
2022/11/04 06:26:12;;;;;;;;;;;;;;;;;;5000442;28;20340;-60
2022/11/04 06:28:38;;;;;;;;;;;;;;;;;;4999858;28;20748;-60
2022/11/04 06:31:04;;;;;;;;;;;;;;;;;;4998708;28;19929;-60
2022/11/04 06:33:30;;;;;;;;;;;;;;;;;;5002930;28;19927;-58
2022/11/04 06:35:56;;;;;;;;;;;;;;;;;;4997661;28;19925;-60
2022/11/04 06:38:21;;;;;;;;;;;;;;;;;;5002145;28;19925;-60
2022/11/04 06:40:47;;;;;;;;;;;;;;;;;;4999004;28;19922;-59
2022/11/04 06:43:12;;;;;;;;;;;;;;;;;;4996554;28;19925;-60
2022/11/04 06:45:37;;;;;;;;;;;;;;;;;;5000774;28;20008;-60
2022/11/04 06:48:03;;;;;;;;;;;;;;;;;;4997005;28;19930;-59
2022/11/04 06:50:28;;;;;;;;;;;;;;;;;;4999771;28;19960;-60
2022/11/04 06:52:53;;;;;;;;;;;;;;;;;;5002395;28;19917;-60
2022/11/04 06:55:19;;;;;;;;;;;;;;;;;;4999372;28;19921;-60
2022/11/04 06:57:44;;;;;;;;;;;;;;;;;;4999580;28;19929;-61
2022/11/04 07:00:10;;;;;;;;;;;;;;;;;;5001645;28;19983;-62
2022/11/04 07:02:36;;;;;;;;;;;;;;;;;;5000843;28;20285;-61
2022/11/04 07:05:01;;;;;;;;;;;;;;;;;;5000990;28;20007;-58
2022/11/04 07:07:27;;;;;;;;;;;;;;;;;;4996267;28;19917;-61
2022/11/04 07:09:53;;;;;;;;;;;;;;;;;;4998206;28;19961;-59
2022/11/04 07:12:18;;;;;;;;;;;;;;;;;;5004126;28;19964;-60
2022/11/04 07:14:43;;;;;;;;;;;;;;;;;;5000432;28;20368;-61
2022/11/04 07:17:09;;;;;;;;;;;;;;;;;;5003489;28;19925;-60
2022/11/04 07:19:34;;;;;;;;;;;;;;;;;;5000232;28;19927;-60
2022/11/04 07:21:59;;;;;;;;;;;;;;;;;;4999378;28;19933;-60
2022/11/04 07:24:25;;;;;;;;;;;;;;;;;;5001896;28;19921;-59
2022/11/04 07:26:52;;;;;;;;;;;;;;;;;;4998409;28;19921;-59
2022/11/04 07:29:18;;;;;;;;;;;;;;;;;;5000365;28;19925;-59
2022/11/04 07:31:43;;;;;;;;;;;;;;;;;;5001015;28;20394;-59
2022/11/04 07:34:08;;;;;;;;;;;;;;;;;;5000359;28;19925;-60
2022/11/04 07:36:34;;;;;;;;;;;;;;;;;;4994514;28;19925;-59
2022/11/04 07:39:00;;;;;;;;;;;;;;;;;;4996976;28;20036;-59
2022/11/04 07:41:26;;;;;;;;;;;;;;;;;;5001236;28;19932;-59
2022/11/04 07:43:51;;;;;;;;;;;;;;;;;;4995425;28;19925;-59
2022/11/04 07:46:17;;;;;;;;;;;;;;;;;;4995139;28;20460;-59
2022/11/04 07:48:43;;;;;;;;;;;;;;;;;;4999200;28;19928;-60
2022/11/04 07:51:10;;;;;;;;;;;;;;;;;;5001192;28;20331;-60
2022/11/04 07:53:35;;;;;;;;;;;;;;;;;;4996724;28;20019;-60
2022/11/04 07:56:05;;;;;;;;;;;;;;;;;;4999825;28;20126;-59
2022/11/04 07:58:31;;;;;;;;;;;;;;;;;;5003710;28;20296;-60
2022/11/04 08:01:00;;;;;;;;;;;;;;;;;;5007215;28;19926;-60
2022/11/04 08:03:25;;;;;;;;;;;;;;;;;;5003418;28;20018;-60
2022/11/04 08:05:55;;;;;;;;;;;;;;;;;;4999349;28;20024;-59
2022/11/04 08:08:20;;;;;;;;;;;;;;;;;;4999859;28;19971;-60
2022/11/04 08:10:50;;;;;;;;;;;;;;;;;;5006077;28;19960;-60
2022/11/04 08:13:15;;;;;;;;;;;;;;;;;;5002356;28;19932;-60
2022/11/04 08:15:41;;;;;;;;;;;;;;;;;;5007058;28;19929;-60
2022/11/04 08:18:06;;;;;;;;;;;;;;;;;;5005278;28;20451;-60
2022/11/04 08:20:31;;;;;;;;;;;;;;;;;;5000811;28;19933;-59
2022/11/04 08:22:56;;;;;;;;;;;;;;;;;;5000835;28;19925;-59
2022/11/04 08:25:22;;;;;;;;;;;;;;;;;;4997389;28;19922;-60
2022/11/04 08:27:47;;;;;;;;;;;;;;;;;;5002962;28;20494;-60
2022/11/04 08:30:12;;;;;;;;;;;;;;;;;;5003416;28;19926;-60
2022/11/04 08:32:38;;;;;;;;;;;;;;;;;;5001928;28;19921;-60
2022/11/04 08:35:03;;;;;;;;;;;;;;;;;;5000117;28;19925;-59
2022/11/04 08:37:28;;;;;;;;;;;;;;;;;;5001522;28;19925;-60
2022/11/04 08:39:54;;;;;;;;;;;;;;;;;;5000820;28;19936;-60
2022/11/04 08:42:19;;;;;;;;;;;;;;;;;;4998988;28;20347;-60
2022/11/04 08:44:44;;;;;;;;;;;;;;;;;;4997978;28;19921;-60
2022/11/04 08:47:10;;;;;;;;;;;;;;;;;;4995063;28;20380;-60
2022/11/04 08:49:38;;;;;;;;;;;;;;;;;;4997369;28;19921;-61
2022/11/04 08:52:04;;;;;;;;;;;;;;;;;;4994503;28;19925;-61
2022/11/04 08:54:29;;;;;;;;;;;;;;;;;;5006711;28;19929;-61
2022/11/04 08:56:55;;;;;;;;;;;;;;;;;;5011104;28;20327;-60
2022/11/04 08:59:20;;;;;;;;;;;;;;;;;;5006709;28;19936;-61
2022/11/04 09:01:45;;;;;;;;;;;;;;;;;;5005773;28;19957;-60
2022/11/04 09:04:11;;;;;;;;;;;;;;;;;;5005625;28;19932;-61
2022/11/04 09:06:38;;;;;;;;;;;;;;;;;;5008867;28;19932;-60
2022/11/04 09:09:05;;;;;;;;;;;;;;;;;;4996388;28;19925;-59
2022/11/04 09:11:35;;;;;;;;;;;;;;;;;;4999802;28;21399;-61
2022/11/04 09:14:01;;;;;;;;;;;;;;;;;;4996600;28;20300;-61
2022/11/04 09:16:27;;;;;;;;;;;;;;;;;;4995202;28;19944;-62
2022/11/04 09:18:54;;;;;;;;;;;;;;;;;;4996619;28;19922;-62
2022/11/04 09:21:19;;;;;;;;;;;;;;;;;;5000429;28;20033;-62
2022/11/04 09:23:45;;;;;;;;;;;;;;;;;;4996899;28;19968;-62
2022/11/04 09:26:12;;;;;;;;;;;;;;;;;;4995265;28;19922;-62
2022/11/04 09:28:39;;;;;;;;;;;;;;;;;;4996691;28;19929;-61
2022/11/04 09:31:23;;;;;;;;;;;;;;;;;;5006951;28;19925;-62
2022/11/04 09:33:49;;;;;;;;;;;;;;;;;;4992994;28;20420;-62
2022/11/04 09:36:14;;;;;;;;;;;;;;;;;;5018880;28;19925;-62
2022/11/04 09:38:40;;;;;;;;;;;;;;;;;;4990478;28;19925;-61
2022/11/04 09:41:09;;;;;;;;;;;;;;;;;;5003284;28;19921;-61
2022/11/04 09:43:46;;;;;;;;;;;;;;;;;;4992621;28;20008;-60
2022/11/04 09:46:12;;;;;;;;;;;;;;;;;;4997745;28;19941;-59
2022/11/04 09:48:56;;;;;;;;;;;;;;;;;;4997938;28;20281;-61
2022/11/04 09:51:23;;;;;;;;;;;;;;;;;;5003343;28;20005;-59
2022/11/04 09:53:50;;;;;;;;;;;;;;;;;;5000939;28;20008;-60
2022/11/04 09:56:19;;;;;;;;;;;;;;;;;;5001339;28;20295;-60
2022/11/04 09:58:44;;;;;;;;;;;;;;;;;;4994056;28;20411;-60
2022/11/04 10:01:28;;;;;;;;;;;;;;;;;;4997354;28;19929;-60
2022/11/04 10:04:00;;;;;;;;;;;;;;;;;;4990743;28;19933;-60
2022/11/04 10:06:40;;;;;;;;;;;;;;;;;;4997204;28;19929;-59
2022/11/04 10:09:08;;;;;;;;;;;;;;;;;;5002020;28;20336;-59
2022/11/04 10:11:34;;;;;;;;;;;;;;;;;;4999961;28;19949;-59
2022/11/04 10:13:59;;;;;;;;;;;;;;;;;;5004209;28;19961;-55
2022/11/04 10:16:27;;;;;;;;;;;;;;;;;;5000447;28;19972;-58
2022/11/04 10:19:05;;;;;;;;;;;;;;;;;;4994012;28;19922;-59
2022/11/04 10:21:30;;;;;;;;;;;;;;;;;;5001534;28;19937;-59
2022/11/04 10:23:58;;;;;;;;;;;;;;;;;;4996527;28;19925;-59
2022/11/04 10:26:27;;;;;;;;;;;;;;;;;;4998212;28;19985;-60
2022/11/04 10:29:16;;;;;;;;;;;;;;;;;;4996425;28;19984;-58
2022/11/04 10:31:43;;;;;;;;;;;;;;;;;;4998200;28;19929;-59
2022/11/04 10:34:27;;;;;;;;;;;;;;;;;;4995742;28;20304;-60
2022/11/04 10:36:54;;;;;;;;;;;;;;;;;;4992628;28;19969;-60
2022/11/04 10:39:29;;;;;;;;;;;;;;;;;;4993810;28;20159;-59
2022/11/04 10:41:57;;;;;;;;;;;;;;;;;;4992486;28;19925;-59
2022/11/04 10:44:33;;;;;;;;;;;;;;;;;;5142136;27;19928;-61
2022/11/04 10:47:07;;;;;;;;;;;;;;;;;;5081781;28;19920;-60
2022/11/04 10:49:38;;;;;;;;;;;;;;;;;;5075959;28;19924;-61
2022/11/04 10:52:05;;;;;;;;;;;;;;;;;;5089175;28;19965;-61
2022/11/04 10:54:33;;;;;;;;;;;;;;;;;;5094385;28;19925;-60
2022/11/04 10:56:58;;;;;;;;;;;;;;;;;;5096178;28;20297;-60
2022/11/04 10:59:26;;;;;;;;;;;;;;;;;;5098145;28;19928;-61
2022/11/04 11:01:53;;;;;;;;;;;;;;;;;;5091002;28;20066;-59
2022/11/04 11:04:35;;;;;;;;;;;;;;;;;;5094641;28;20636;-60
2022/11/04 11:07:03;;;;;;;;;;;;;;;;;;5096649;28;21761;-60
2022/11/04 11:10:00;;;;;;;;;;;;;;;;;;5092204;28;19927;-60
2022/11/04 11:12:29;;;;;;;;;;;;;;;;;;5089732;28;19924;-60
2022/11/04 11:14:54;;;;;;;;;;;;;;;;;;5093336;28;19939;-60
2022/11/04 11:17:24;;;;;;;;;;;;;;;;;;5072363;28;22481;-60
2022/11/04 11:19:54;;;;;;;;;;;;;;;;;;5070619;28;19924;-60
2022/11/04 11:22:30;;;;;;;;;;;;;;;;;;5067190;28;20416;-60
2022/11/04 11:25:11;;;;;;;;;;;;;;;;;;5069916;28;19925;-60
2022/11/04 11:27:36;;;;;;;;;;;;;;;;;;5071327;28;20388;-60
2022/11/04 11:30:02;;;;;;;;;;;;;;;;;;5072640;28;19935;-60
2022/11/04 11:32:33;;;;;;;;;;;;;;;;;;5065121;28;20303;-61
2022/11/04 11:35:02;;;;;;;;;;;;;;;;;;5067648;28;19928;-61
2022/11/04 11:37:31;;;;;;;;;;;;;;;;;;5067358;28;19971;-60
2022/11/04 11:39:57;;;;;;;;;;;;;;;;;;5072436;28;19928;-60
2022/11/04 11:42:24;;;;;;;;;;;;;;;;;;5069476;28;19969;-60
2022/11/04 11:44:52;;;;;;;;;;;;;;;;;;5068489;28;20381;-60
2022/11/04 11:47:21;;;;;;;;;;;;;;;;;;5070013;28;19929;-60
2022/11/04 11:50:02;;;;;;;;;;;;;;;;;;5076359;28;19951;-60
2022/11/04 11:52:32;;;;;;;;;;;;;;;;;;5076599;28;19925;-60
2022/11/04 11:55:02;;;;;;;;;;;;;;;;;;5065647;28;19924;-60
2022/11/04 11:57:43;;;;;;;;;;;;;;;;;;5060225;28;19932;-61
2022/11/04 12:00:14;;;;;;;;;;;;;;;;;;5055919;28;20068;-60
2022/11/04 12:02:41;;;;;;;;;;;;;;;;;;5057282;28;19929;-60
2022/11/04 12:05:11;;;;;;;;;;;;;;;;;;5052767;28;19928;-60
2022/11/04 12:07:59;;;;;;;;;;;;;;;;;;5063286;28;19928;-65
2022/11/04 12:10:30;;;;;;;;;;;;;;;;;;5054423;28;19939;-66
2022/11/04 12:12:58;;;;;;;;;;;;;;;;;;5056840;28;19929;-66
2022/11/04 12:15:31;;;;;;;;;;;;;;;;;;5057416;28;19932;-66
2022/11/04 12:17:56;;;;;;;;;;;;;;;;;;5062387;28;19932;-66
2022/11/04 12:20:28;;;;;;;;;;;;;;;;;;5065615;28;19924;-68
2022/11/04 12:23:16;;;;;;;;;;;;;;;;;;5062061;28;19928;-67
2022/11/04 12:25:59;;;;;;;;;;;;;;;;;;5058577;28;19928;-66
2022/11/04 12:28:25;;;;;;;;;;;;;;;;;;5055080;28;20896;-67
2022/11/04 12:30:53;;;;;;;;;;;;;;;;;;5049466;28;20295;-66
2022/11/04 12:33:57;;;;;;;;;;;;;;;;;;5058182;28;19932;-66
2022/11/04 12:36:32;;;;;;;;;;;;;;;;;;5054130;28;19928;-66
2022/11/04 12:39:02;;;;;;;;;;;;;;;;;;5060208;28;19928;-66
2022/11/04 12:41:36;;;;;;;;;;;;;;;;;;5054359;28;20276;-66
2022/11/04 12:44:11;;;;;;;;;;;;;;;;;;5061340;28;19928;-66
2022/11/04 12:46:41;;;;;;;;;;;;;;;;;;5058839;28;19989;-66
2022/11/04 12:49:21;;;;;;;;;;;;;;;;;;5059000;28;20057;-66
2022/11/04 12:51:50;;;;;;;;;;;;;;;;;;5056093;28;19935;-66
2022/11/04 12:54:35;;;;;;;;;;;;;;;;;;5055834;28;20009;-66
2022/11/04 12:57:09;;;;;;;;;;;;;;;;;;5061673;28;19939;-66
2022/11/04 12:59:49;;;;;;;;;;;;;;;;;;5059188;28;19943;-66
2022/11/04 13:02:20;;;;;;;;;;;;;;;;;;5060240;28;19924;-66
2022/11/04 13:04:55;;;;;;;;;;;;;;;;;;5058931;28;19920;-67
2022/11/04 13:07:32;;;;;;;;;;;;;;;;;;5056344;28;19957;-65
2022/11/04 13:09:59;;;;;;;;;;;;;;;;;;5052956;28;20015;-66
2022/11/04 13:12:30;;;;;;;;;;;;;;;;;;5054753;28;19925;-66
2022/11/04 13:15:00;;;;;;;;;;;;;;;;;;5061584;28;20399;-66
2022/11/04 13:17:28;;;;;;;;;;;;;;;;;;5059088;28;19932;-66
2022/11/04 13:19:56;;;;;;;;;;;;;;;;;;5065639;28;19920;-65
2022/11/04 13:22:22;;;;;;;;;;;;;;;;;;5059138;28;19933;-66
2022/11/04 13:24:51;;;;;;;;;;;;;;;;;;5059363;28;19977;-66
2022/11/04 13:27:36;;;;;;;;;;;;;;;;;;5059720;28;20335;-66
2022/11/04 13:30:07;;;;;;;;;;;;;;;;;;5058348;28;20306;-66
2022/11/04 13:32:38;;;;;;;;;;;;;;;;;;5059590;28;20428;-66
2022/11/04 13:35:11;;;;;;;;;;;;;;;;;;5057843;28;19928;-65
2022/11/04 13:37:41;;;;;;;;;;;;;;;;;;5054671;28;19924;-66
2022/11/04 13:40:21;;;;;;;;;;;;;;;;;;5061536;28;19924;-66
2022/11/04 13:42:52;;;;;;;;;;;;;;;;;;5054282;28;19929;-66
2022/11/04 13:45:19;;;;;;;;;;;;;;;;;;5054964;28;19932;-66
2022/11/04 13:47:49;;;;;;;;;;;;;;;;;;5057819;28;19933;-66
2022/11/04 13:50:28;;;;;;;;;;;;;;;;;;5060412;28;19924;-66
2022/11/04 13:52:53;;;;;;;;;;;;;;;;;;5063194;28;19978;-66
2022/11/04 13:55:20;;;;;;;;;;;;;;;;;;5065438;28;19964;-66
2022/11/04 13:57:53;;;;;;;;;;;;;;;;;;5056993;28;20403;-66
2022/11/04 14:00:27;;;;;;;;;;;;;;;;;;5055707;28;19939;-65
2022/11/04 14:02:54;;;;;;;;;;;;;;;;;;5056283;28;19925;-66
2022/11/04 14:05:28;;;;;;;;;;;;;;;;;;5058300;28;19932;-65
2022/11/04 14:07:56;;;;;;;;;;;;;;;;;;5056257;28;20011;-66
2022/11/04 14:10:40;;;;;;;;;;;;;;;;;;5055322;28;19967;-62
2022/11/04 14:13:33;;;;;;;;;;;;;;;;;;5057020;28;19986;-61
2022/11/04 14:15:59;;;;;;;;;;;;;;;;;;5059641;28;19924;-61
2022/11/04 14:18:25;;;;;;;;;;;;;;;;;;5056780;28;19990;-60
2022/11/04 14:21:01;;;;;;;;;;;;;;;;;;5057849;28;19932;-60
2022/11/04 14:23:27;;;;;;;;;;;;;;;;;;5059732;28;19958;-60
2022/11/04 14:26:00;;;;;;;;;;;;;;;;;;5060525;28;20037;-60
2022/11/04 14:28:27;;;;;;;;;;;;;;;;;;5057283;28;19955;-60
2022/11/04 14:30:57;;;;;;;;;;;;;;;;;;5056636;28;19928;-60
2022/11/04 14:33:22;;;;;;;;;;;;;;;;;;5058246;28;19939;-60
2022/11/04 14:35:49;;;;;;;;;;;;;;;;;;5058962;28;19924;-60
2022/11/04 14:38:20;;;;;;;;;;;;;;;;;;5056760;28;20022;-60
2022/11/04 14:41:08;;;;;;;;;;;;;;;;;;5059524;28;19924;-59
2022/11/04 14:43:34;;;;;;;;;;;;;;;;;;5058038;28;19925;-60
2022/11/04 14:46:00;;;;;;;;;;;;;;;;;;5055077;28;19951;-61
2022/11/04 14:48:26;;;;;;;;;;;;;;;;;;5056973;28;19928;-59
2022/11/04 14:50:52;;;;;;;;;;;;;;;;;;5054193;28;20395;-60
2022/11/04 14:53:23;;;;;;;;;;;;;;;;;;5057409;28;20421;-60
2022/11/04 14:56:01;;;;;;;;;;;;;;;;;;5058678;28;19925;-60
2022/11/04 14:58:27;;;;;;;;;;;;;;;;;;5058509;28;20350;-60
2022/11/04 15:00:54;;;;;;;;;;;;;;;;;;5060322;28;20014;-60
2022/11/04 15:03:19;;;;;;;;;;;;;;;;;;5053427;28;19929;-61
2022/11/04 15:05:46;;;;;;;;;;;;;;;;;;5056648;28;19951;-60
2022/11/04 15:08:24;;;;;;;;;;;;;;;;;;5053355;28;19954;-60
2022/11/04 15:10:49;;;;;;;;;;;;;;;;;;5059275;28;19924;-60
2022/11/04 15:13:18;;;;;;;;;;;;;;;;;;5057488;28;20007;-60
2022/11/04 15:15:47;;;;;;;;;;;;;;;;;;5055289;28;19935;-60
2022/11/04 15:18:20;;;;;;;;;;;;;;;;;;5057289;28;19928;-61
2022/11/04 15:20:48;;;;;;;;;;;;;;;;;;5056932;28;20553;-61
2022/11/04 15:23:14;;;;;;;;;;;;;;;;;;5052077;28;20055;-61
2022/11/04 15:25:47;;;;;;;;;;;;;;;;;;5053345;28;19952;-64
2022/11/04 15:28:36;;;;;;;;;;;;;;;;;;5057939;28;20356;-61
2022/11/04 15:31:05;;;;;;;;;;;;;;;;;;5049780;28;19932;-60
2022/11/04 15:33:34;;;;;;;;;;;;;;;;;;5059836;28;19939;-61
2022/11/04 15:36:00;;;;;;;;;;;;;;;;;;5057302;28;19928;-61
2022/11/04 15:38:27;;;;;;;;;;;;;;;;;;5059181;28;20378;-61
2022/11/04 15:40:53;;;;;;;;;;;;;;;;;;5041948;28;19920;-61
2022/11/04 15:43:18;;;;;;;;;;;;;;;;;;5059424;28;19939;-60
2022/11/04 15:45:50;;;;;;;;;;;;;;;;;;5059728;28;19952;-60
2022/11/04 15:48:22;;;;;;;;;;;;;;;;;;5057603;28;19931;-60
2022/11/04 15:50:52;;;;;;;;;;;;;;;;;;5060456;28;19924;-61
2022/11/04 15:53:18;;;;;;;;;;;;;;;;;;5060306;28;19935;-61
2022/11/04 15:55:46;;;;;;;;;;;;;;;;;;5061424;28;19920;-59
2022/11/04 15:58:12;;;;;;;;;;;;;;;;;;5059491;28;19932;-61
2022/11/04 16:00:38;;;;;;;;;;;;;;;;;;5058875;28;19935;-59
2022/11/04 16:03:03;;;;;;;;;;;;;;;;;;5057644;28;19928;-60
2022/11/04 16:05:34;;;;;;;;;;;;;;;;;;5050202;28;19933;-61
2022/11/04 16:08:19;;;;;;;;;;;;;;;;;;5033475;28;19925;-60
2022/11/04 16:10:44;;;;;;;;;;;;;;;;;;5058888;28;19926;-60
2022/11/04 16:13:15;;;;;;;;;;;;;;;;;;5056473;28;19932;-61
2022/11/04 16:15:40;;;;;;;;;;;;;;;;;;5055082;28;19929;-59
2022/11/04 16:18:19;;;;;;;;;;;;;;;;;;5059405;28;19928;-59
2022/11/04 16:20:46;;;;;;;;;;;;;;;;;;5057239;28;19932;-59
2022/11/04 16:23:15;;;;;;;;;;;;;;;;;;5058814;28;20319;-60
2022/11/04 16:25:41;;;;;;;;;;;;;;;;;;5057461;28;19924;-59
2022/11/04 16:28:06;;;;;;;;;;;;;;;;;;5057812;28;20018;-60
2022/11/04 16:30:31;;;;;;;;;;;;;;;;;;5054302;28;19932;-59
2022/11/04 16:33:08;;;;;;;;;;;;;;;;;;5055237;28;19935;-61
2022/11/04 16:35:34;;;;;;;;;;;;;;;;;;5052994;28;19939;-61
2022/11/04 16:37:59;;;;;;;;;;;;;;;;;;5058940;28;19924;-61
2022/11/04 16:40:25;;;;;;;;;;;;;;;;;;5054288;28;19932;-60
2022/11/04 16:42:51;;;;;;;;;;;;;;;;;;5063403;28;20312;-60
2022/11/04 16:45:28;;;;;;;;;;;;;;;;;;5065183;28;20050;-60
2022/11/04 16:47:54;;;;;;;;;;;;;;;;;;5065243;28;20467;-60
2022/11/04 16:50:20;;;;;;;;;;;;;;;;;;5063368;28;19993;-60
2022/11/04 16:52:45;;;;;;;;;;;;;;;;;;5063953;28;19928;-60
2022/11/04 16:55:11;;;;;;;;;;;;;;;;;;5064063;28;19939;-60
2022/11/04 16:57:36;;;;;;;;;;;;;;;;;;5063370;28;19928;-60
2022/11/04 17:00:03;;;;;;;;;;;;;;;;;;5064421;28;19931;-60
2022/11/04 17:02:36;;;;;;;;;;;;;;;;;;5064425;28;19935;-60
2022/11/04 17:05:01;;;;;;;;;;;;;;;;;;5066685;28;19928;-61
2022/11/04 17:07:27;;;;;;;;;;;;;;;;;;5065563;28;19927;-60
2022/11/04 17:09:52;;;;;;;;;;;;;;;;;;5063666;28;20426;-60
2022/11/04 17:12:17;;;;;;;;;;;;;;;;;;5064598;28;19932;-60
2022/11/04 17:14:43;;;;;;;;;;;;;;;;;;5066177;28;19971;-60
2022/11/04 17:17:08;;;;;;;;;;;;;;;;;;5062905;28;19932;-60
2022/11/04 17:19:34;;;;;;;;;;;;;;;;;;5066212;28;19924;-60
2022/11/04 17:22:01;;;;;;;;;;;;;;;;;;5064310;28;20019;-60
2022/11/04 17:24:27;;;;;;;;;;;;;;;;;;5065162;28;19929;-60
2022/11/04 17:26:52;;;;;;;;;;;;;;;;;;5066495;28;20302;-60
2022/11/04 17:29:17;;;;;;;;;;;;;;;;;;5067452;28;19955;-61